Time;durP1;ratioP1;P1;durP2;ratioP2;P2;SDS_P1;SDS_P2;PMS_P1;PMS_P2;Temp;Humidity;BMP_temperature;BMP_pressure;BME280_temperature;BME280_humidity;BME280_pressure;Samples;Min_cycle;Max_cycle;Signal;HPM_P1;HPM_P2
2022/03/20 00:01:02;;;;;;;6.47;3.80;;;4.70;99.90;;;;;;4999453;28;20478;-45
2022/03/20 00:03:30;;;;;;;8.77;4.23;;;4.70;99.90;;;;;;5008638;28;20249;-46
2022/03/20 00:05:57;;;;;;;10.13;3.67;;;4.60;99.90;;;;;;4989326;28;20346;-45
2022/03/20 00:08:24;;;;;;;10.70;4.53;;;4.70;99.90;;;;;;5005774;28;20223;-46
2022/03/20 00:10:53;;;;;;;8.97;3.60;;;4.70;99.90;;;;;;5010774;28;20492;-45
2022/03/20 00:13:23;;;;;;;5.03;3.80;;;4.60;99.90;;;;;;4999002;28;20244;-45
2022/03/20 00:15:52;;;;;;;8.70;4.23;;;4.60;99.90;;;;;;4998001;28;20217;-45
2022/03/20 00:18:21;;;;;;;10.80;3.67;;;4.60;99.90;;;;;;5016168;28;20288;-44
2022/03/20 00:20:50;;;;;;;10.27;4.33;;;4.60;99.90;;;;;;4984628;28;20435;-45
2022/03/20 00:23:18;;;;;;;8.10;4.43;;;4.60;99.90;;;;;;5006760;28;20234;-44
2022/03/20 00:25:47;;;;;;;8.17;4.60;;;4.70;99.90;;;;;;4999574;28;20231;-45
2022/03/20 00:28:15;;;;;;;7.43;5.00;;;4.60;99.90;;;;;;5013230;28;20284;-44
2022/03/20 00:30:45;;;;;;;9.13;4.60;;;4.50;99.90;;;;;;4997653;28;20594;-45
2022/03/20 00:33:12;;;;;;;11.07;4.83;;;4.50;99.90;;;;;;5014608;28;20229;-45
2022/03/20 00:35:39;;;;;;;7.33;4.53;;;4.50;99.90;;;;;;5005486;28;20636;-43
2022/03/20 00:38:07;;;;;;;7.10;4.33;;;4.50;99.90;;;;;;4989125;28;20223;-46
2022/03/20 00:40:34;;;;;;;10.80;4.47;;;4.50;99.90;;;;;;4999038;28;20202;-44
2022/03/20 00:43:01;;;;;;;10.27;5.30;;;4.40;99.90;;;;;;5012576;28;20740;-44
2022/03/20 00:45:29;;;;;;;8.80;5.00;;;4.50;99.90;;;;;;4992171;28;20217;-43
2022/03/20 00:47:58;;;;;;;10.90;5.43;;;4.40;99.90;;;;;;5004996;28;20209;-43
2022/03/20 00:50:25;;;;;;;11.60;5.17;;;4.40;99.90;;;;;;5006091;28;22149;-44
2022/03/20 00:52:52;;;;;;;7.17;4.90;;;4.40;99.90;;;;;;4981781;28;20476;-44
2022/03/20 00:55:19;;;;;;;10.70;5.60;;;4.40;99.90;;;;;;5003690;28;20860;-44
2022/03/20 00:57:46;;;;;;;10.43;5.40;;;4.30;99.90;;;;;;4992715;28;20512;-44
2022/03/20 01:00:16;;;;;;;8.57;5.20;;;4.40;99.90;;;;;;5013962;28;20235;-44
2022/03/20 01:02:45;;;;;;;9.13;5.90;;;4.40;99.90;;;;;;4979229;28;20236;-45
2022/03/20 01:05:13;;;;;;;9.60;5.50;;;4.30;99.90;;;;;;5013046;28;20273;-44
2022/03/20 01:07:41;;;;;;;10.73;5.93;;;4.30;99.90;;;;;;4994633;28;20214;-45
2022/03/20 01:10:09;;;;;;;7.67;5.40;;;4.20;99.90;;;;;;4998883;28;20308;-44
2022/03/20 01:12:38;;;;;;;8.97;6.13;;;4.10;99.90;;;;;;5009435;28;20423;-45
2022/03/20 01:15:06;;;;;;;9.23;5.37;;;4.10;99.90;;;;;;5011704;28;20205;-43
2022/03/20 01:17:33;;;;;;;9.37;5.87;;;4.10;99.90;;;;;;4998627;28;20211;-44
2022/03/20 01:20:00;;;;;;;11.93;6.10;;;4.10;99.90;;;;;;5009045;28;20328;-44
2022/03/20 01:22:28;;;;;;;9.93;5.53;;;4.10;99.90;;;;;;5005092;28;20608;-45
2022/03/20 01:24:55;;;;;;;10.60;6.00;;;4.00;99.90;;;;;;4998565;28;20247;-44
2022/03/20 01:27:22;;;;;;;11.60;6.50;;;4.00;99.90;;;;;;5001597;28;20227;-44
2022/03/20 01:29:49;;;;;;;17.30;7.03;;;4.00;99.90;;;;;;5008045;28;20275;-45
2022/03/20 01:32:16;;;;;;;11.97;6.43;;;4.00;99.90;;;;;;5016288;28;20447;-46
2022/03/20 01:34:44;;;;;;;14.97;6.13;;;3.90;99.90;;;;;;4987549;28;20229;-43
2022/03/20 01:37:11;;;;;;;12.77;6.10;;;3.90;99.90;;;;;;5014390;28;20208;-44
2022/03/20 01:39:39;;;;;;;12.73;6.87;;;3.90;99.90;;;;;;4995884;28;20223;-49
2022/03/20 01:42:07;;;;;;;10.80;5.87;;;3.90;99.90;;;;;;5006187;28;20208;-44
2022/03/20 01:44:35;;;;;;;11.80;6.97;;;3.80;99.90;;;;;;5006020;28;20237;-44
2022/03/20 01:47:03;;;;;;;11.47;6.30;;;3.90;99.90;;;;;;5001310;28;20222;-44
2022/03/20 01:49:30;;;;;;;10.97;6.90;;;3.90;99.90;;;;;;5007700;28;20289;-44
2022/03/20 01:52:13;;;;;;;10.07;6.40;;;3.90;99.90;;;;;;5012572;28;20234;-43
2022/03/20 01:54:43;;;;;;;10.67;7.03;;;3.90;99.90;;;;;;4999612;28;20221;-44
2022/03/20 01:57:12;;;;;;;14.13;6.73;;;3.90;99.90;;;;;;5010480;28;20411;-44
2022/03/20 01:59:39;;;;;;;12.23;6.70;;;3.90;99.90;;;;;;5015638;28;20219;-47
2022/03/20 02:02:07;;;;;;;12.47;7.60;;;3.80;99.90;;;;;;5009565;28;20216;-49
2022/03/20 02:04:35;;;;;;;9.57;6.90;;;3.90;99.90;;;;;;5016396;28;20547;-44
2022/03/20 02:07:03;;;;;;;15.63;6.90;;;3.80;99.90;;;;;;5001512;28;20212;-47
2022/03/20 02:09:31;;;;;;;10.90;7.13;;;3.80;99.90;;;;;;4994341;28;20420;-45
2022/03/20 02:12:00;;;;;;;13.83;7.50;;;3.70;99.90;;;;;;5013653;28;20477;-46
2022/03/20 02:14:27;;;;;;;12.83;7.60;;;3.70;99.90;;;;;;5012903;28;20553;-45
2022/03/20 02:16:55;;;;;;;15.57;7.23;;;3.70;99.90;;;;;;5017654;28;20271;-46
2022/03/20 02:19:22;;;;;;;13.87;7.50;;;3.70;99.90;;;;;;4994958;28;20400;-44
2022/03/20 02:21:51;;;;;;;14.80;8.00;;;3.70;99.90;;;;;;4999952;28;20568;-48
2022/03/20 02:24:32;;;;;;;12.83;8.00;;;3.70;99.90;;;;;;5016750;28;20485;-44
2022/03/20 02:27:12;;;;;;;15.73;8.17;;;3.70;99.90;;;;;;4986158;28;20221;-48
2022/03/20 02:29:40;;;;;;;12.47;7.70;;;3.70;99.90;;;;;;5015137;28;20415;-47
2022/03/20 02:32:09;;;;;;;11.47;7.83;;;3.70;99.90;;;;;;5012300;28;20416;-47
2022/03/20 02:34:37;;;;;;;14.43;8.40;;;3.70;99.90;;;;;;5009450;28;20212;-44
2022/03/20 02:37:06;;;;;;;13.33;7.93;;;3.70;99.90;;;;;;5004283;28;20210;-45
2022/03/20 02:39:33;;;;;;;12.70;8.10;;;3.60;99.90;;;;;;5001246;28;20827;-44
2022/03/20 02:42:02;;;;;;;13.23;9.47;;;3.50;99.90;;;;;;4992758;28;20279;-45
2022/03/20 02:44:58;;;;;;;13.30;8.90;;;3.50;99.90;;;;;;5011336;28;25489;-44
2022/03/20 02:47:27;;;;;;;14.80;9.37;;;3.50;99.90;;;;;;5001405;28;20642;-44
2022/03/20 02:49:56;;;;;;;13.20;8.90;;;3.40;99.90;;;;;;5011039;28;20557;-44
2022/03/20 02:52:29;;;;;;;15.50;8.93;;;3.50;99.90;;;;;;5008404;28;20419;-44
2022/03/20 02:55:00;;;;;;;17.10;8.70;;;3.40;99.90;;;;;;4994849;28;20226;-44
2022/03/20 02:57:27;;;;;;;16.93;8.93;;;3.40;99.90;;;;;;4994124;28;20231;-44
2022/03/20 02:59:54;;;;;;;15.67;9.57;;;3.30;99.90;;;;;;5007047;28;20535;-44
2022/03/20 03:02:21;;;;;;;15.13;9.00;;;3.40;99.90;;;;;;5006752;28;20305;-45
2022/03/20 03:04:48;;;;;;;16.40;10.13;;;3.40;99.90;;;;;;5004649;28;20204;-45
2022/03/20 03:07:15;;;;;;;16.90;9.23;;;3.40;99.90;;;;;;5013115;28;20314;-44
2022/03/20 03:12:27;;;;;;;17.27;9.63;;;3.40;99.90;;;;;;4991509;28;20257;-45
2022/03/20 03:17:38;;;;;;;14.17;9.50;;;3.40;99.90;;;;;;4997653;28;20223;-46
2022/03/20 03:20:07;;;;;;;18.37;9.90;;;3.30;99.90;;;;;;5009420;28;20220;-44
2022/03/20 03:22:33;;;;;;;13.70;9.20;;;3.30;99.90;;;;;;5000122;28;21261;-44
2022/03/20 03:25:02;;;;;;;17.40;9.57;;;3.30;99.90;;;;;;5002013;28;20307;-45
2022/03/20 03:27:28;;;;;;;19.57;9.93;;;3.40;99.90;;;;;;4996547;28;20226;-46
2022/03/20 03:29:55;;;;;;;13.27;9.67;;;3.30;99.90;;;;;;4994925;28;20211;-44
2022/03/20 03:32:22;;;;;;;18.07;10.50;;;3.30;99.90;;;;;;4997350;28;20249;-44
2022/03/20 03:37:33;;;;;;;14.07;9.73;;;3.30;99.90;;;;;;5005776;28;20265;-47
2022/03/20 03:40:05;;;;;;;15.63;10.03;;;3.20;99.90;;;;;;5003284;28;20317;-45
2022/03/20 03:42:31;;;;;;;16.73;11.03;;;3.20;99.90;;;;;;4981044;28;20752;-46
2022/03/20 03:44:59;;;;;;;19.07;10.83;;;3.20;99.90;;;;;;4994184;28;20204;-43
2022/03/20 03:47:26;;;;;;;23.40;11.13;;;3.20;99.90;;;;;;5012301;28;20298;-48
2022/03/20 03:49:53;;;;;;;16.10;10.83;;;3.20;99.90;;;;;;5014500;28;20284;-44
2022/03/20 03:52:20;;;;;;;19.17;10.17;;;3.20;99.90;;;;;;5005499;28;20311;-45
2022/03/20 03:54:47;;;;;;;15.67;10.27;;;3.40;99.90;;;;;;5009604;28;20633;-44
2022/03/20 03:57:18;;;;;;;15.07;9.90;;;3.30;99.90;;;;;;5000132;28;20213;-44
2022/03/20 03:59:45;;;;;;;18.07;10.40;;;3.30;99.90;;;;;;4982584;28;20575;-43
2022/03/20 04:02:12;;;;;;;17.57;11.10;;;3.20;99.90;;;;;;5010808;28;20301;-44
2022/03/20 04:04:39;;;;;;;15.77;10.43;;;3.20;99.90;;;;;;5012415;28;20247;-44
2022/03/20 04:07:06;;;;;;;15.53;10.53;;;3.30;99.90;;;;;;5019455;28;20285;-47
2022/03/20 04:09:33;;;;;;;17.20;11.17;;;3.30;99.90;;;;;;5001488;28;20467;-44
2022/03/20 04:12:00;;;;;;;18.10;10.20;;;3.20;99.90;;;;;;5002705;28;20575;-44
2022/03/20 04:14:29;;;;;;;17.90;9.90;;;3.30;99.90;;;;;;4973303;28;20215;-45
2022/03/20 04:16:56;;;;;;;18.13;10.90;;;3.30;99.90;;;;;;5009874;28;21427;-44
2022/03/20 04:19:23;;;;;;;18.73;10.80;;;3.20;99.90;;;;;;5015066;28;20237;-44
2022/03/20 04:21:50;;;;;;;17.13;10.53;;;3.30;99.90;;;;;;5001590;28;20302;-44
2022/03/20 04:24:17;;;;;;;18.87;10.73;;;3.20;99.90;;;;;;5010181;28;20310;-43
2022/03/20 04:26:44;;;;;;;14.17;10.07;;;3.20;99.90;;;;;;5001654;28;20559;-48
2022/03/20 04:29:11;;;;;;;21.40;10.40;;;3.20;99.90;;;;;;4992794;28;20442;-44
2022/03/20 04:31:40;;;;;;;16.70;10.17;;;3.10;99.90;;;;;;4992521;28;20227;-48
2022/03/20 04:34:07;;;;;;;16.93;9.80;;;3.20;99.90;;;;;;5008768;28;20226;-49
2022/03/20 04:36:35;;;;;;;15.90;10.40;;;3.10;99.90;;;;;;5011498;28;20288;-49
2022/03/20 04:39:03;;;;;;;18.67;10.97;;;3.00;99.90;;;;;;5003379;28;20534;-43
2022/03/20 04:41:30;;;;;;;17.53;11.23;;;2.90;99.90;;;;;;5005729;28;20456;-43
2022/03/20 04:43:58;;;;;;;18.63;10.97;;;2.90;99.90;;;;;;5003843;28;20321;-44
2022/03/20 04:46:25;;;;;;;16.17;10.77;;;2.90;99.90;;;;;;4999398;28;20622;-46
2022/03/20 04:59:50;;;;;;;21.43;11.50;;;2.90;99.90;;;;;;4992994;28;20456;-47
2022/03/20 05:02:17;;;;;;;17.00;11.13;;;2.90;99.90;;;;;;5014240;28;20472;-46
2022/03/20 05:04:45;;;;;;;16.07;10.90;;;2.80;99.90;;;;;;5001598;28;20217;-47
2022/03/20 05:07:12;;;;;;;15.37;10.50;;;2.80;99.90;;;;;;5015716;28;20228;-45
2022/03/20 05:15:09;;;;;;;16.73;11.43;;;2.90;99.90;;;;;;5011000;28;20396;-46
2022/03/20 05:17:36;;;;;;;20.13;12.37;;;2.80;99.90;;;;;;4991998;28;20290;-48
2022/03/20 05:20:05;;;;;;;14.90;10.30;;;2.90;99.90;;;;;;5009689;28;20437;-46
2022/03/20 05:22:35;;;;;;;18.90;11.30;;;2.90;99.90;;;;;;5009731;28;20243;-48
2022/03/20 05:25:05;;;;;;;16.20;11.73;;;3.00;99.90;;;;;;4996986;28;20437;-45
2022/03/20 05:27:32;;;;;;;16.30;10.97;;;2.80;99.90;;;;;;5011905;28;20230;-48
2022/03/20 05:29:59;;;;;;;16.67;11.17;;;2.90;99.90;;;;;;4983990;28;20745;-48
2022/03/20 05:32:26;;;;;;;19.30;11.13;;;2.90;99.90;;;;;;4994287;28;20256;-48
2022/03/20 05:34:53;;;;;;;20.73;11.43;;;2.90;99.90;;;;;;5009915;28;20210;-44
2022/03/20 05:37:22;;;;;;;17.10;10.00;;;2.90;99.90;;;;;;5011436;28;20669;-42
2022/03/20 05:39:48;;;;;;;17.57;11.10;;;2.90;99.90;;;;;;4999210;28;20209;-48
2022/03/20 05:42:15;;;;;;;20.93;11.70;;;2.80;99.90;;;;;;5014358;28;20237;-44
2022/03/20 05:44:44;;;;;;;19.27;11.10;;;2.80;99.90;;;;;;4996077;28;20518;-47
2022/03/20 05:47:11;;;;;;;19.00;11.27;;;2.80;99.90;;;;;;4996032;28;20237;-45
2022/03/20 05:49:39;;;;;;;19.13;11.63;;;2.80;99.90;;;;;;4996121;28;20217;-45
2022/03/20 05:52:07;;;;;;;17.87;11.67;;;2.80;99.90;;;;;;5012561;28;20222;-47
2022/03/20 05:54:36;;;;;;;17.90;11.27;;;2.80;99.90;;;;;;5000082;28;20210;-48
2022/03/20 05:59:48;;;;;;;18.27;11.37;;;2.80;99.90;;;;;;4989831;28;20217;-43
2022/03/20 06:02:15;;;;;;;17.33;11.23;;;2.70;99.90;;;;;;4982960;28;20210;-43
2022/03/20 06:04:41;;;;;;;19.80;11.00;;;2.70;99.90;;;;;;5004915;28;20517;-43
2022/03/20 06:07:09;;;;;;;18.20;12.17;;;2.70;99.90;;;;;;5003171;28;20219;-43
2022/03/20 06:09:39;;;;;;;18.03;10.77;;;2.80;99.90;;;;;;5012243;28;20528;-45
2022/03/20 06:12:07;;;;;;;19.30;11.57;;;2.80;99.90;;;;;;5009911;28;20246;-43
2022/03/20 06:14:35;;;;;;;19.03;10.93;;;2.80;99.90;;;;;;4985053;28;20206;-44
2022/03/20 06:17:04;;;;;;;15.23;10.30;;;2.90;99.90;;;;;;5003893;28;20531;-44
2022/03/20 06:19:31;;;;;;;18.73;11.33;;;2.90;99.90;;;;;;4991853;28;20210;-44
2022/03/20 06:21:59;;;;;;;21.37;11.27;;;2.90;99.90;;;;;;5007731;28;20211;-44
2022/03/20 06:24:25;;;;;;;19.67;11.23;;;3.00;99.90;;;;;;5011304;28;20227;-44
2022/03/20 06:26:54;;;;;;;18.57;11.03;;;2.90;99.90;;;;;;5021450;28;20542;-46
2022/03/20 06:29:20;;;;;;;18.57;11.10;;;3.00;99.90;;;;;;4998702;28;20211;-48
2022/03/20 06:31:49;;;;;;;20.53;10.60;;;3.10;99.90;;;;;;5014539;28;20221;-43
2022/03/20 06:34:16;;;;;;;22.67;11.50;;;3.10;99.90;;;;;;5003641;28;20232;-49
2022/03/20 06:36:42;;;;;;;18.03;11.17;;;3.10;99.90;;;;;;4991989;28;20752;-42
2022/03/20 06:39:10;;;;;;;16.83;10.10;;;3.10;99.90;;;;;;5013269;28;20363;-48
2022/03/20 06:41:38;;;;;;;17.20;10.70;;;3.20;99.90;;;;;;5000056;28;20521;-46
2022/03/20 06:44:07;;;;;;;20.03;11.00;;;3.30;99.90;;;;;;5011860;28;20633;-48
2022/03/20 06:46:37;;;;;;;16.87;10.90;;;3.30;99.90;;;;;;4994417;28;20327;-43
2022/03/20 06:49:06;;;;;;;18.40;11.70;;;3.30;99.90;;;;;;5005352;28;20210;-48
2022/03/20 06:51:33;;;;;;;15.53;10.43;;;3.30;99.90;;;;;;4989877;28;20233;-46
2022/03/20 06:54:00;;;;;;;15.57;10.20;;;3.40;99.90;;;;;;5001831;28;20334;-48
2022/03/20 06:56:28;;;;;;;15.67;10.27;;;3.40;99.90;;;;;;5014551;28;20324;-47
2022/03/20 06:58:55;;;;;;;15.43;10.43;;;3.40;99.90;;;;;;5001686;28;20210;-44
2022/03/20 07:01:24;;;;;;;21.70;10.87;;;3.40;99.90;;;;;;4986043;28;20333;-48
2022/03/20 07:03:51;;;;;;;17.90;10.97;;;3.40;99.90;;;;;;4997521;28;20232;-45
2022/03/20 07:06:18;;;;;;;16.13;10.43;;;3.60;99.90;;;;;;4994866;28;20216;-43
2022/03/20 07:08:44;;;;;;;14.63;10.40;;;3.60;99.90;;;;;;5000302;28;20237;-43
2022/03/20 07:11:12;;;;;;;18.47;11.37;;;3.70;99.90;;;;;;5001660;28;20244;-46
2022/03/20 07:13:53;;;;;;;18.70;10.67;;;3.80;99.90;;;;;;5022639;28;20254;-43
2022/03/20 07:16:23;;;;;;;22.67;10.83;;;3.80;99.90;;;;;;5005466;28;20217;-43
2022/03/20 07:18:51;;;;;;;14.67;10.03;;;3.90;99.90;;;;;;5003207;28;20214;-43
2022/03/20 07:21:19;;;;;;;16.43;10.27;;;3.90;99.90;;;;;;4998092;28;20582;-45
2022/03/20 07:23:46;;;;;;;16.83;10.30;;;3.90;99.90;;;;;;4989915;28;20228;-43
2022/03/20 07:31:42;;;;;;;13.43;9.50;;;4.10;99.90;;;;;;4982076;28;20262;-45
2022/03/20 07:34:10;;;;;;;16.90;10.60;;;4.10;99.90;;;;;;5009224;28;20243;-44
2022/03/20 07:36:37;;;;;;;18.50;11.20;;;4.20;99.90;;;;;;4988107;28;20217;-45
2022/03/20 07:39:04;;;;;;;15.80;10.17;;;4.20;99.90;;;;;;5005045;28;20479;-44
2022/03/20 07:41:31;;;;;;;18.70;11.43;;;4.30;99.90;;;;;;5017215;28;20243;-44
2022/03/20 07:43:58;;;;;;;14.83;10.93;;;4.30;99.90;;;;;;5006578;28;20399;-45
2022/03/20 07:46:25;;;;;;;16.77;9.93;;;4.40;99.90;;;;;;5000941;28;20285;-44
2022/03/20 07:48:52;;;;;;;16.93;10.30;;;4.40;99.90;;;;;;4999119;28;20240;-44
2022/03/20 07:51:21;;;;;;;18.47;10.87;;;4.50;99.90;;;;;;4999546;28;20218;-45
2022/03/20 07:53:50;;;;;;;14.77;9.33;;;4.60;99.90;;;;;;5007895;28;20230;-43
2022/03/20 07:56:18;;;;;;;15.80;10.73;;;4.60;99.90;;;;;;5015391;28;20201;-45
2022/03/20 07:58:45;;;;;;;18.80;10.93;;;4.70;99.90;;;;;;5008300;28;20217;-43
2022/03/20 08:01:12;;;;;;;14.20;9.50;;;4.80;99.90;;;;;;5010439;28;20281;-44
2022/03/20 08:03:40;;;;;;;21.57;11.27;;;4.80;99.90;;;;;;4993543;28;20229;-44
2022/03/20 08:06:07;;;;;;;15.30;10.67;;;4.90;99.90;;;;;;4992707;28;20221;-44
2022/03/20 08:08:39;;;;;;;18.47;10.50;;;5.00;99.90;;;;;;5000600;28;20214;-44
2022/03/20 08:11:06;;;;;;;14.73;10.13;;;5.00;99.90;;;;;;4993532;28;20299;-44
2022/03/20 08:13:33;;;;;;;18.20;10.40;;;5.10;99.90;;;;;;4998940;28;20234;-44
2022/03/20 08:16:00;;;;;;;20.20;11.30;;;5.20;99.90;;;;;;4990796;28;20321;-44
2022/03/20 08:18:27;;;;;;;18.97;10.63;;;5.30;99.90;;;;;;4994314;28;20546;-44
2022/03/20 08:20:54;;;;;;;15.23;10.43;;;5.30;99.90;;;;;;5006356;28;20273;-45
2022/03/20 08:23:21;;;;;;;17.43;11.13;;;5.40;99.90;;;;;;4977482;28;20234;-43
2022/03/20 08:25:50;;;;;;;18.40;10.90;;;5.50;99.90;;;;;;4984981;28;20214;-45
2022/03/20 08:28:17;;;;;;;15.53;10.43;;;5.50;99.90;;;;;;5010169;28;20697;-43
2022/03/20 08:30:44;;;;;;;16.57;10.80;;;5.70;99.90;;;;;;5010634;28;20209;-45
2022/03/20 08:33:11;;;;;;;18.33;11.33;;;5.80;99.90;;;;;;4988670;28;20233;-43
2022/03/20 08:35:39;;;;;;;15.50;10.77;;;5.90;99.90;;;;;;5000779;28;20306;-44
2022/03/20 08:38:06;;;;;;;19.23;11.70;;;5.90;99.90;;;;;;4979621;28;20214;-44
2022/03/20 08:40:33;;;;;;;18.17;11.10;;;6.00;99.90;;;;;;4997145;28;21119;-45
2022/03/20 08:43:04;;;;;;;19.33;12.20;;;6.10;99.90;;;;;;4998100;28;20233;-43
2022/03/20 08:45:33;;;;;;;20.27;12.13;;;6.10;99.90;;;;;;5014055;28;20277;-44
2022/03/20 08:48:00;;;;;;;19.03;11.40;;;6.20;99.90;;;;;;5001132;28;20280;-44
2022/03/20 08:50:27;;;;;;;18.40;12.40;;;6.30;99.90;;;;;;4984404;28;20314;-44
2022/03/20 08:52:54;;;;;;;20.50;11.63;;;6.30;99.90;;;;;;4995808;28;20234;-47
2022/03/20 08:55:22;;;;;;;22.83;11.60;;;6.40;99.90;;;;;;4990352;28;20301;-48
2022/03/20 08:57:51;;;;;;;20.93;12.70;;;6.50;99.90;;;;;;4996594;28;20203;-44
2022/03/20 09:00:21;;;;;;;20.07;12.33;;;6.50;99.90;;;;;;5001445;28;20237;-48
2022/03/20 09:02:50;;;;;;;21.70;12.30;;;6.50;99.90;;;;;;4999521;28;20572;-48
2022/03/20 09:05:18;;;;;;;24.33;12.30;;;6.60;99.90;;;;;;4988595;28;20206;-43
2022/03/20 09:07:46;;;;;;;21.83;12.60;;;6.60;99.90;;;;;;4997725;28;20206;-43
2022/03/20 09:10:15;;;;;;;19.83;11.37;;;6.70;99.90;;;;;;4980793;28;20309;-44
2022/03/20 09:12:43;;;;;;;18.20;11.00;;;6.70;99.90;;;;;;4989455;28;20228;-45
2022/03/20 09:15:13;;;;;;;21.17;11.93;;;6.70;99.90;;;;;;5011735;28;20464;-49
2022/03/20 09:20:26;;;;;;;18.40;11.03;;;6.80;99.90;;;;;;4989096;28;20246;-45
2022/03/20 09:22:53;;;;;;;17.53;11.73;;;6.90;99.90;;;;;;5005490;28;20226;-49
2022/03/20 09:25:21;;;;;;;18.17;11.53;;;6.90;99.90;;;;;;4974149;28;20216;-45
2022/03/20 09:27:49;;;;;;;19.30;12.30;;;7.00;99.90;;;;;;4995176;28;20224;-45
2022/03/20 09:30:15;;;;;;;18.00;11.43;;;7.10;99.90;;;;;;5003211;28;20210;-45
2022/03/20 09:32:45;;;;;;;18.00;11.53;;;7.10;99.90;;;;;;5000827;28;20342;-45
2022/03/20 09:35:12;;;;;;;22.13;13.17;;;7.20;99.90;;;;;;4985994;28;20211;-49
2022/03/20 09:37:40;;;;;;;18.67;12.07;;;7.20;99.90;;;;;;4991096;28;20214;-44
2022/03/20 09:40:09;;;;;;;18.53;11.70;;;7.40;99.90;;;;;;5007696;28;20210;-46
2022/03/20 09:42:37;;;;;;;19.93;11.30;;;7.40;99.90;;;;;;4989745;28;20645;-45
2022/03/20 09:45:05;;;;;;;23.63;12.77;;;7.50;99.90;;;;;;5015784;28;20525;-45
2022/03/20 09:47:36;;;;;;;19.27;11.33;;;7.60;99.90;;;;;;5007508;28;20289;-45
2022/03/20 09:50:05;;;;;;;15.40;10.80;;;7.70;99.90;;;;;;5008264;28;20274;-44
2022/03/20 09:52:32;;;;;;;19.57;12.10;;;7.70;99.90;;;;;;4997976;28;20233;-46
2022/03/20 09:55:00;;;;;;;19.77;11.87;;;7.80;99.90;;;;;;5007362;28;20509;-46
2022/03/20 09:57:29;;;;;;;19.80;11.93;;;7.80;99.90;;;;;;4968323;28;20213;-44
2022/03/20 09:59:57;;;;;;;19.67;11.73;;;7.90;99.90;;;;;;5015523;28;20282;-44
2022/03/20 10:02:28;;;;;;;19.37;11.83;;;7.80;99.90;;;;;;5010865;28;20221;-44
2022/03/20 10:04:56;;;;;;;21.93;12.10;;;8.00;99.90;;;;;;5008419;28;20214;-44
2022/03/20 10:07:26;;;;;;;18.40;11.83;;;8.10;99.90;;;;;;5011868;28;20271;-45
2022/03/20 10:10:13;;;;;;;21.63;11.80;;;8.10;99.90;;;;;;5004551;28;20237;-45
2022/03/20 10:12:43;;;;;;;18.50;11.63;;;8.10;99.90;;;;;;4990418;28;20451;-44
2022/03/20 10:15:11;;;;;;;18.03;11.47;;;8.20;99.90;;;;;;4998399;28;20303;-44
2022/03/20 10:17:39;;;;;;;19.13;12.40;;;8.30;99.90;;;;;;4991219;28;20210;-44
2022/03/20 10:20:17;;;;;;;17.53;10.90;;;8.30;99.90;;;;;;5006926;28;20221;-44
2022/03/20 10:22:45;;;;;;;21.73;11.57;;;8.40;99.90;;;;;;5009012;28;20296;-44
2022/03/20 10:25:13;;;;;;;25.10;11.17;;;8.50;99.90;;;;;;4972724;28;20308;-44
2022/03/20 10:27:55;;;;;;;19.17;11.70;;;8.50;99.90;;;;;;4979858;28;20641;-44
2022/03/20 10:30:22;;;;;;;19.20;11.40;;;8.80;99.90;;;;;;4977120;28;20328;-44
2022/03/20 10:32:50;;;;;;;16.40;10.67;;;8.80;99.90;;;;;;4989527;28;20258;-46
2022/03/20 10:35:19;;;;;;;19.93;11.23;;;8.80;99.90;;;;;;4998947;28;20211;-45
2022/03/20 10:38:02;;;;;;;16.27;10.63;;;8.80;99.90;;;;;;5002225;28;20209;-45
2022/03/20 10:40:30;;;;;;;16.70;10.30;;;8.90;99.90;;;;;;4995910;28;20272;-45
2022/03/20 10:43:11;;;;;;;18.83;11.20;;;9.00;99.90;;;;;;4990245;28;25160;-45
2022/03/20 10:46:00;;;;;;;17.90;11.03;;;9.00;99.90;;;;;;4983656;28;20900;-44
2022/03/20 10:48:39;;;;;;;19.57;11.67;;;9.10;99.90;;;;;;5015324;28;20557;-45
2022/03/20 10:51:08;;;;;;;16.90;11.10;;;9.10;99.90;;;;;;4988131;28;20316;-46
2022/03/20 10:53:51;;;;;;;18.23;11.43;;;9.10;99.90;;;;;;5008482;28;20246;-44
2022/03/20 10:56:18;;;;;;;19.20;10.67;;;9.20;99.90;;;;;;4989590;28;20206;-44
2022/03/20 10:58:45;;;;;;;15.50;10.03;;;9.30;99.90;;;;;;4976968;28;20213;-46
2022/03/20 11:01:13;;;;;;;18.37;10.43;;;9.40;99.90;;;;;;4996225;28;20730;-50
2022/03/20 11:03:41;;;;;;;17.40;10.10;;;9.40;99.90;;;;;;5001958;28;20226;-46
2022/03/20 11:06:09;;;;;;;15.33;10.17;;;9.50;99.90;;;;;;5009287;28;20206;-46
2022/03/20 11:08:38;;;;;;;13.27;9.20;;;9.50;99.90;;;;;;4994956;28;20231;-46
2022/03/20 11:11:06;;;;;;;15.43;9.83;;;9.60;99.90;;;;;;5004096;28;20540;-47
2022/03/20 11:13:35;;;;;;;16.20;10.17;;;9.60;99.90;;;;;;4964793;28;20235;-50
2022/03/20 11:16:06;;;;;;;17.60;10.77;;;9.80;99.90;;;;;;4994185;28;21573;-47
2022/03/20 11:18:35;;;;;;;22.53;10.73;;;9.70;99.90;;;;;;5000988;28;20337;-47
2022/03/20 11:21:06;;;;;;;17.03;9.73;;;9.90;99.90;;;;;;5006142;28;20264;-46
2022/03/20 11:23:35;;;;;;;17.30;10.10;;;9.90;99.90;;;;;;5005541;28;20260;-45
2022/03/20 11:26:05;;;;;;;16.67;9.73;;;9.90;99.90;;;;;;4983608;28;20312;-46
2022/03/20 11:28:42;;;;;;;15.53;9.00;;;10.00;99.90;;;;;;4994630;28;20407;-46
2022/03/20 11:31:10;;;;;;;15.83;9.20;;;10.10;99.90;;;;;;4981376;28;20214;-46
2022/03/20 11:33:37;;;;;;;13.60;8.63;;;10.20;99.90;;;;;;4984361;28;20494;-46
2022/03/20 11:36:05;;;;;;;12.43;8.10;;;10.20;99.90;;;;;;5006552;28;20278;-46
2022/03/20 11:38:35;;;;;;;14.80;8.40;;;10.30;99.90;;;;;;5011091;28;20528;-45
2022/03/20 11:41:12;;;;;;;14.37;8.00;;;10.30;99.90;;;;;;4994303;28;20210;-45
2022/03/20 11:43:43;;;;;;;13.80;8.40;;;10.40;99.90;;;;;;4990117;28;20388;-45
2022/03/20 11:46:20;;;;;;;13.38;8.88;;;10.40;99.90;;;;;;4988292;28;20272;-50
2022/03/20 11:49:21;;;;;;;11.17;7.87;;;10.50;99.90;;;;;;4996737;28;20237;-44
2022/03/20 11:52:02;;;;;;;14.00;7.83;;;10.60;99.90;;;;;;5010143;28;20530;-45
2022/03/20 11:54:51;;;;;;;13.73;8.00;;;10.70;99.90;;;;;;4998471;28;20431;-44
2022/03/20 11:57:47;;;;;;;16.33;8.47;;;10.70;99.90;;;;;;4991413;28;20537;-49
2022/03/20 12:00:18;;;;;;;13.60;9.43;;;10.70;99.90;;;;;;4950923;28;20215;-50
2022/03/20 12:02:55;;;;;;;13.77;8.60;;;10.60;99.90;;;;;;4990985;28;20565;-46
2022/03/20 12:05:39;;;;;;;14.77;8.30;;;10.60;99.90;;;;;;4989925;28;20605;-46
2022/03/20 12:08:19;;;;;;;11.80;8.40;;;10.70;99.90;;;;;;5008581;28;20281;-46
2022/03/20 12:10:57;;;;;;;17.35;8.88;;;10.70;99.90;;;;;;5006026;28;20229;-46
2022/03/20 12:13:34;;;;;;;17.92;9.27;;;10.80;99.90;;;;;;4996050;28;20380;-46
2022/03/20 12:16:01;;;;;;;14.07;9.03;;;10.80;99.90;;;;;;4990047;28;20216;-46
2022/03/20 12:18:28;;;;;;;12.93;8.70;;;10.80;99.90;;;;;;4969860;28;20481;-46
2022/03/20 12:21:03;;;;;;;15.48;9.40;;;10.90;99.90;;;;;;5006593;28;20316;-46
2022/03/20 12:23:43;;;;;;;13.38;8.85;;;10.90;99.90;;;;;;4992774;28;20217;-46
2022/03/20 12:26:43;;;;;;;16.98;9.27;;;10.90;99.90;;;;;;5006376;28;20513;-47
2022/03/20 12:29:32;;;;;;;17.88;9.48;;;10.90;99.90;;;;;;4987935;28;20209;-49
2022/03/20 12:32:01;;;;;;;12.63;8.15;;;11.00;99.90;;;;;;5006158;28;20282;-44
2022/03/20 12:34:28;;;;;;;9.90;7.22;;;11.00;99.90;;;;;;4967199;28;20226;-45
2022/03/20 12:36:55;;;;;;;16.75;8.88;;;11.00;99.90;;;;;;4998643;28;20210;-46
2022/03/20 12:39:52;;;;;;;16.97;9.17;;;11.10;99.90;;;;;;5010430;28;20210;-46
2022/03/20 12:42:19;;;;;;;13.38;9.15;;;11.20;99.90;;;;;;5006289;28;20226;-46
2022/03/20 12:44:52;;;;;;;12.32;8.32;;;11.20;99.90;;;;;;4996329;28;20316;-46
2022/03/20 12:47:19;;;;;;;16.38;9.15;;;11.20;99.90;;;;;;5000199;28;20217;-46
2022/03/20 12:49:48;;;;;;;15.18;8.02;;;11.20;99.90;;;;;;4972034;28;20259;-45
2022/03/20 12:52:17;;;;;;;14.52;9.18;;;11.20;99.90;;;;;;4989774;28;20213;-47
2022/03/20 12:54:54;;;;;;;17.20;8.80;;;11.30;99.90;;;;;;4993886;28;20222;-45
2022/03/20 12:57:36;;;;;;;15.02;8.60;;;11.30;99.90;;;;;;5005179;28;20225;-47
2022/03/20 13:00:13;;;;;;;11.57;8.55;;;11.40;99.90;;;;;;5012063;28;20296;-49
2022/03/20 13:03:03;;;;;;;14.20;8.50;;;11.40;99.90;;;;;;4993440;28;20225;-49
2022/03/20 13:05:32;;;;;;;9.93;7.50;;;11.50;99.90;;;;;;4978378;28;20202;-46
2022/03/20 13:07:59;;;;;;;14.82;8.85;;;11.50;99.90;;;;;;4989727;28;20292;-47
2022/03/20 13:10:27;;;;;;;14.88;7.93;;;11.50;99.90;;;;;;4990780;28;20410;-45
2022/03/20 13:12:57;;;;;;;15.82;8.05;;;11.60;99.90;;;;;;5005831;28;20284;-46
2022/03/20 13:15:28;;;;;;;14.02;8.00;;;11.60;99.90;;;;;;5008620;28;20501;-45
2022/03/20 13:17:55;;;;;;;11.13;7.35;;;11.60;99.90;;;;;;4988336;28;20232;-46
2022/03/20 13:20:25;;;;;;;12.13;7.82;;;11.70;99.90;;;;;;4981196;28;20723;-46
2022/03/20 13:22:52;;;;;;;16.92;7.15;;;11.70;99.90;;;;;;4993989;28;20233;-46
2022/03/20 13:25:22;;;;;;;12.80;7.82;;;11.70;99.90;;;;;;4978049;28;20195;-46
2022/03/20 13:27:50;;;;;;;12.75;7.93;;;11.70;99.90;;;;;;5005705;28;20198;-49